ADDS METAR Data INFO
IDs: Format: Raw Decoded Include TAF

Data at: 2011 UTC 19 Oct 2017

KAJO 191956Z AUTO VRB04KT 10SM CLR 24/15 A2989 RMK AO2 SLP128 T02390150
KAJO 191856Z AUTO 28003KT 10SM CLR 24/14 A2991 RMK AO2 SLP136 T02390144
KAJO 191756Z AUTO VRB03KT 8SM CLR 22/14 A2993 RMK AO2 SLP142 60000 T02220144 10222 20106 50002
KAJO 191656Z AUTO 00000KT 7SM CLR 20/14 A2994 RMK AO2 SLP145 T02000144
KAJO 191556Z AUTO 29003KT 6SM HZ CLR 17/13 A2994 RMK AO2 SLP146 T01670128
KAJO 191456Z AUTO 00000KT 5SM BR CLR 13/12 A2992 RMK AO2 SLP142 60000 T01280117 51004
KAJO 191414Z AUTO 00000KT 4SM BR SCT014 11/10 A2992 RMK AO2
KAJO 191406Z AUTO 00000KT 3SM BR BKN014 12/11 A2992 RMK AO2
KAJO 191404Z AUTO 00000KT 3/4SM BR BKN014 12/11 A2992 RMK AO2
KAJO 191356Z AUTO 00000KT 1/4SM FG OVC014 11/11 A2992 RMK AO2 VIS M1/4V2 1/2 SLP140 T01110106
KAJO 191317Z AUTO 00000KT 1/4SM FG BKN011 12/12 A2992 RMK AO2
KAJO 191309Z AUTO 00000KT 1/2SM FG VV014 11/10 A2992 RMK AO2 VIS M1/4V4
KAJO 191306Z AUTO 00000KT 1 1/4SM BR FEW016 12/11 A2992 RMK AO2 VIS 1/4V4
KAJO 191256Z AUTO 00000KT 4SM BR SCT014 12/12 A2992 RMK AO2 RAB45E55 SLP139 P0000 T01220117
KAJO 191253Z AUTO 00000KT 2SM -RA BR SCT014 12/11 A2992 RMK AO2 RAB45 P0000
KAJO 191248Z AUTO 00000KT 3/4SM -RA BR BKN014 11/10 A2991 RMK AO2 VIS 1/4V4 RAB45 P0000
KAJO 191241Z AUTO 00000KT 1SM BR BKN014 12/11 A2991 RMK AO2 VIS 1/4V3
KAJO 191234Z AUTO 00000KT 2 1/2SM BR BKN012 13/12 A2992 RMK AO2
KAJO 191156Z AUTO 00000KT 4SM BR CLR 13/12 A2991 RMK AO2 SLP135 T01330117 10183 20117 55002
KAJO 191056Z AUTO 00000KT 9SM CLR 13/11 A2990 RMK AO2 SLP132 T01280111
KAJO 190956Z AUTO 00000KT 8SM CLR 14/13 A2991 RMK AO2 SLP133 T01440128
KAJO 190856Z AUTO 00000KT 9SM CLR 14/11 A2992 RMK AO2 SLP136 T01390111 55004
KAJO 190756Z AUTO 00000KT 9SM CLR 16/13 A2991 RMK AO2 SLP134 T01560128 403110117
KAJO 190656Z AUTO 00000KT 10SM CLR 16/12 A2993 RMK AO2 SLP139 T01560117
KAJO 190556Z AUTO 00000KT 10SM CLR 18/13 A2993 RMK AO2 SLP141 T01830128 10283 20161 51008
KAJO 190456Z AUTO 26003KT 10SM CLR 19/11 A2993 RMK AO2 SLP140 T01940111
KAJO 190356Z AUTO 00000KT 10SM CLR 22/13 A2991 RMK AO2 SLP135 T02220128
KAJO 190256Z AUTO 30003KT 10SM CLR 22/13 A2991 RMK AO2 SLP136 T02170128 53008
KAJO 190156Z AUTO 30004KT 10SM CLR 24/12 A2989 RMK AO2 SLP131 T02440122
KAJO 190056Z AUTO 28009KT 10SM CLR 27/12 A2988 RMK AO2 SLP127 T02670122
KAJO 182356Z AUTO 28008KT 10SM CLR 28/13 A2988 RMK AO2 SLP126 T02830128 10311 20272 56007
KAJO 182256Z AUTO 28009G15KT 10SM CLR 29/14 A2989 RMK AO2 SLP126 T02940144
KAJO 182156Z AUTO 28010KT 10SM CLR 30/16 A2989 RMK AO2 SLP126 T03000156
KAJO 182056Z AUTO 28010KT 10SM CLR 31/13 A2990 RMK AO2 SLP131 T03110128 58020
KAJO 181956Z AUTO 27009KT 10SM CLR 31/11 A2993 RMK AO2 SLP141 T03060111
KAJO 181856Z AUTO 27004KT 10SM CLR 29/08 A2995 RMK AO2 SLPNO T02940083
KAJO 181756Z AUTO 24003KT 10SM CLR 27/07 A2996 RMK AO2 SLPNO T02720072 10272 20117 50005
KAJO 181656Z AUTO 00000KT 10SM CLR 24/06 A2997 RMK AO2 SLPNO T02390061
KAJO 181556Z AUTO 00000KT 10SM CLR 20/08 A2997 RMK AO2 SLPNO T02000083
KAJO 181456Z AUTO 00000KT 10SM CLR 12/08 A2995 RMK AO2 SLPNO T01220078 53004
KAJO 181356Z AUTO 00000KT 10SM CLR 13/08 A2994 RMK AO2 SLPNO T01280083
KAJO 181256Z AUTO 00000KT 10SM CLR 13/07 A2994 RMK AO2 SLPNO T01280072
KAJO 181056Z AUTO 00000KT 10SM CLR 14/08 A2993 RMK AO2 SLPNO T01440083
KAJO 180956Z AUTO 00000KT 10SM CLR 15/08 A2994 RMK AO2 SLPNO T01500083
KAJO 180856Z AUTO 00000KT 10SM CLR 14/07 A2995 RMK AO2 SLPNO 6//// T01390067